createdAt,value
2017-02-13T00:00:13.062Z,57.22
2017-02-13T00:01:12.194Z,57.78
2017-02-13T00:02:13.015Z,58.09
2017-02-13T00:03:12.802Z,58.30
2017-02-13T00:04:12.803Z,58.32
2017-02-13T00:05:14.103Z,58.47
2017-02-13T00:06:12.712Z,58.55
2017-02-13T00:07:14.458Z,58.47
2017-02-13T00:08:11.574Z,58.55
2017-02-13T00:09:12.665Z,58.47
2017-02-13T00:10:12.856Z,58.53
2017-02-13T00:11:13.660Z,58.18
2017-02-13T00:12:12.785Z,58.14
2017-02-13T00:13:13.355Z,58.45
2017-02-13T00:14:11.175Z,58.55
2017-02-13T00:15:12.838Z,58.67
2017-02-13T00:16:13.638Z,58.55
2017-02-13T00:17:13.177Z,58.17
2017-02-13T00:18:12.852Z,58.33
2017-02-13T00:19:15.158Z,58.56
2017-02-13T00:20:12.326Z,58.36
2017-02-13T00:21:12.494Z,58.36
2017-02-13T00:22:13.806Z,58.49
2017-02-13T00:23:13.444Z,58.38
2017-02-13T00:24:12.470Z,58.23
2017-02-13T00:25:14.300Z,58.57
2017-02-13T00:26:12.240Z,58.53
2017-02-13T00:27:12.950Z,58.44
2017-02-13T00:28:12.273Z,58.86
2017-02-13T00:29:14.105Z,59.26
2017-02-13T00:30:12.658Z,59.33
2017-02-13T00:31:13.353Z,58.95
2017-02-13T00:32:13.058Z,58.55
2017-02-13T00:33:12.760Z,58.76
2017-02-13T00:34:13.291Z,58.68
2017-02-13T00:35:12.282Z,58.70
2017-02-13T00:36:13.116Z,58.51
2017-02-13T00:37:12.824Z,58.33
2017-02-13T00:38:12.856Z,58.46
2017-02-13T00:39:14.399Z,58.60
2017-02-13T00:40:12.613Z,58.59
2017-02-13T00:41:15.182Z,58.50
2017-02-13T00:42:12.858Z,58.71
2017-02-13T00:43:13.883Z,58.66
2017-02-13T00:44:14.040Z,58.79
2017-02-13T00:45:12.492Z,58.71
2017-02-13T00:46:12.435Z,58.49
2017-02-13T00:47:13.050Z,58.44
2017-02-13T00:48:12.141Z,58.34
2017-02-13T00:49:13.673Z,58.35
2017-02-13T00:50:12.836Z,58.63
2017-02-13T00:51:14.018Z,58.47
2017-02-13T00:52:13.666Z,58.49
2017-02-13T00:53:14.096Z,58.46
2017-02-13T00:54:12.084Z,58.63
2017-02-13T00:55:15.341Z,58.28
2017-02-13T00:56:12.306Z,58.59
2017-02-13T00:57:09.948Z,58.74
2017-02-13T00:58:12.631Z,59.61
2017-02-13T00:59:13.033Z,59.90
2017-02-13T01:00:14.982Z,59.84
2017-02-13T01:01:13.828Z,59.23
2017-02-13T01:02:13.487Z,59.03
2017-02-13T01:03:14.236Z,58.85
2017-02-13T01:04:14.975Z,58.57
2017-02-13T01:05:12.453Z,59.03
2017-02-13T01:06:14.101Z,58.81
2017-02-13T01:07:14.124Z,58.86
2017-02-13T01:08:12.110Z,58.92
2017-02-13T01:09:14.674Z,58.92
2017-02-13T01:10:15.389Z,58.72
2017-02-13T01:11:13.205Z,58.61
2017-02-13T01:12:15.803Z,58.75
2017-02-13T01:13:13.463Z,58.52
2017-02-13T01:14:12.448Z,58.51
2017-02-13T01:15:14.282Z,58.72
2017-02-13T01:16:13.861Z,58.72
2017-02-13T01:17:15.916Z,58.72
2017-02-13T01:18:14.562Z,58.58
2017-02-13T01:19:15.681Z,58.73
2017-02-13T01:20:15.098Z,58.73
2017-02-13T01:21:12.658Z,58.52
2017-02-13T01:22:12.703Z,58.47
2017-02-13T01:23:14.412Z,58.17
2017-02-13T01:24:12.985Z,58.34
2017-02-13T01:25:12.993Z,58.47
2017-02-13T01:26:12.456Z,58.33
2017-02-13T01:27:14.801Z,58.17
2017-02-13T01:28:13.653Z,58.10
2017-02-13T01:29:15.037Z,58.29
2017-02-13T01:30:13.296Z,58.19
2017-02-13T01:31:14.108Z,58.47
2017-02-13T01:32:12.680Z,58.18
2017-02-13T01:33:13.856Z,58.34
2017-02-13T01:34:14.586Z,57.37
2017-02-13T01:35:13.871Z,57.37
2017-02-13T01:36:15.532Z,57.37
2017-02-13T01:37:12.502Z,57.11
2017-02-13T01:38:14.376Z,56.74
2017-02-13T01:39:12.679Z,57.22
2017-02-13T01:40:13.994Z,57.61
2017-02-13T01:41:14.510Z,57.91
2017-02-13T01:42:12.973Z,58.24
2017-02-13T01:43:12.979Z,58.25
2017-02-13T01:44:13.073Z,58.30
2017-02-13T01:45:13.091Z,58.78
2017-02-13T01:46:12.177Z,58.94
2017-02-13T01:47:14.301Z,58.78
2017-02-13T01:48:11.546Z,58.53
2017-02-13T01:49:13.182Z,58.27
2017-02-13T01:50:12.947Z,58.46
2017-02-13T01:51:12.081Z,58.38
2017-02-13T01:52:12.765Z,58.15
2017-02-13T01:53:14.445Z,58.02
2017-02-13T01:54:13.564Z,58.23
2017-02-13T01:55:13.458Z,58.33
2017-02-13T01:56:14.674Z,58.29
2017-02-13T01:57:12.814Z,58.07
2017-02-13T01:58:13.412Z,57.98
2017-02-13T01:59:15.171Z,58.19
2017-02-13T02:00:13.635Z,58.33
2017-02-13T02:01:12.652Z,58.48
2017-02-13T02:02:13.217Z,58.33
2017-02-13T02:03:13.476Z,58.47
2017-02-13T02:04:12.452Z,58.39
2017-02-13T02:05:14.689Z,58.14
2017-02-13T02:06:11.806Z,58.08
2017-02-13T02:07:14.035Z,58.05
2017-02-13T02:08:12.123Z,58.09
2017-02-13T02:09:12.952Z,58.17
2017-02-13T02:10:12.654Z,58.28
2017-02-13T02:11:12.658Z,58.09
2017-02-13T02:12:13.876Z,58.46
2017-02-13T02:13:13.563Z,58.35
2017-02-13T02:14:15.368Z,58.37
2017-02-13T02:15:12.438Z,58.10
2017-02-13T02:16:13.031Z,58.20
2017-02-13T02:17:13.037Z,58.15
2017-02-13T02:18:12.639Z,58.35
2017-02-13T02:19:13.402Z,58.35
2017-02-13T02:20:12.462Z,58.52
2017-02-13T02:21:14.244Z,58.46
2017-02-13T02:22:12.278Z,58.10
2017-02-13T02:23:14.104Z,58.26
2017-02-13T02:24:12.253Z,58.27
2017-02-13T02:25:13.377Z,58.19
2017-02-13T02:26:13.843Z,58.25
2017-02-13T02:27:13.022Z,58.39
2017-02-13T02:28:12.850Z,58.49
2017-02-13T02:29:12.884Z,58.33
2017-02-13T02:30:12.840Z,58.28
2017-02-13T02:31:14.263Z,58.37
2017-02-13T02:32:12.313Z,58.33
2017-02-13T02:33:13.010Z,58.28
2017-02-13T02:34:12.254Z,58.21
2017-02-13T02:35:14.214Z,58.22
2017-02-13T02:36:12.350Z,58.32
2017-02-13T02:37:14.441Z,58.45
2017-02-13T02:38:13.249Z,58.87
2017-02-13T02:39:13.077Z,58.87
2017-02-13T02:40:14.293Z,58.44
2017-02-13T02:41:12.347Z,58.50
2017-02-13T02:42:13.531Z,58.75
2017-02-13T02:43:10.714Z,58.72
2017-02-13T02:44:13.756Z,58.30
2017-02-13T02:45:12.926Z,58.29
2017-02-13T02:46:13.085Z,58.52
2017-02-13T02:47:12.285Z,58.56
2017-02-13T02:48:12.825Z,58.36
2017-02-13T02:49:12.946Z,58.96
2017-02-13T02:50:10.711Z,59.49
2017-02-13T02:51:13.845Z,59.40
2017-02-13T02:52:12.466Z,59.23
2017-02-13T02:53:14.286Z,59.12
2017-02-13T02:54:13.030Z,58.89
2017-02-13T02:55:13.596Z,59.12
2017-02-13T02:56:13.916Z,59.15
2017-02-13T02:57:13.039Z,58.99
2017-02-13T02:58:12.844Z,58.94
2017-02-13T02:59:13.333Z,59.12
2017-02-13T03:00:10.446Z,59.13
2017-02-13T03:01:13.378Z,58.20
2017-02-13T03:02:12.391Z,57.96
2017-02-13T03:03:13.356Z,58.87
2017-02-13T03:04:12.272Z,59.18
2017-02-13T03:05:13.052Z,59.22
2017-02-13T03:06:12.655Z,59.09
2017-02-13T03:07:13.815Z,59.07
2017-02-13T03:08:15.329Z,59.14
2017-02-13T03:09:15.950Z,57.99
2017-02-13T03:10:12.628Z,58.03
2017-02-13T03:11:13.575Z,58.87
2017-02-13T03:12:12.868Z,58.92
2017-02-13T03:13:13.949Z,59.25
2017-02-13T03:14:12.628Z,59.20
2017-02-13T03:15:11.332Z,59.36
2017-02-13T03:16:12.456Z,59.26
2017-02-13T03:17:14.173Z,59.23
2017-02-13T03:18:10.518Z,59.37
2017-02-13T03:19:12.252Z,59.37
2017-02-13T03:20:12.968Z,59.35
2017-02-13T03:21:12.812Z,59.31
2017-02-13T03:22:13.383Z,59.22
2017-02-13T03:23:12.580Z,59.58
2017-02-13T03:24:12.687Z,59.64
2017-02-13T03:25:11.473Z,59.32
2017-02-13T03:26:12.533Z,59.17
2017-02-13T03:27:13.371Z,59.14
2017-02-13T03:28:14.826Z,58.89
2017-02-13T03:29:13.605Z,58.77
2017-02-13T03:30:15.213Z,58.72
2017-02-13T03:31:13.096Z,58.68
2017-02-13T03:32:13.424Z,58.52
2017-02-13T03:33:12.524Z,58.55
2017-02-13T03:34:13.008Z,58.63
2017-02-13T03:35:12.247Z,58.45
2017-02-13T03:36:10.370Z,58.79
2017-02-13T03:37:13.048Z,58.66
2017-02-13T03:38:13.013Z,58.65
2017-02-13T03:39:12.765Z,58.84
2017-02-13T03:40:12.828Z,58.25
2017-02-13T03:41:12.872Z,58.28
2017-02-13T03:42:12.883Z,58.64
2017-02-13T03:43:13.001Z,58.66
2017-02-13T03:44:10.960Z,58.44
2017-02-13T03:45:14.115Z,57.63
2017-02-13T03:46:12.121Z,57.52
2017-02-13T03:47:12.502Z,57.36
2017-02-13T03:48:14.764Z,57.16
2017-02-13T03:49:12.926Z,57.14
2017-02-13T03:50:13.047Z,57.26
2017-02-13T03:51:13.751Z,57.81
2017-02-13T03:52:12.836Z,58.15
2017-02-13T03:53:12.856Z,58.13
2017-02-13T03:54:13.660Z,58.21
2017-02-13T03:55:12.707Z,58.30
2017-02-13T03:56:10.787Z,58.10
2017-02-13T03:57:13.588Z,58.20
2017-02-13T03:58:12.766Z,58.40
2017-02-13T03:59:13.437Z,58.61
2017-02-13T04:00:12.492Z,58.34
2017-02-13T04:01:13.428Z,58.89
2017-02-13T04:02:11.383Z,59.59
2017-02-13T04:03:14.181Z,59.62
2017-02-13T04:04:13.174Z,59.15
2017-02-13T04:05:13.655Z,58.73
2017-02-13T04:06:13.357Z,58.61
2017-02-13T04:07:12.338Z,58.74
2017-02-13T04:08:13.053Z,58.47
2017-02-13T04:09:12.338Z,58.54
2017-02-13T04:10:13.568Z,58.42
2017-02-13T04:11:12.838Z,58.39
2017-02-13T04:12:12.859Z,58.64
2017-02-13T04:13:13.696Z,58.27
2017-02-13T04:14:12.870Z,57.92
2017-02-13T04:15:14.032Z,57.87
2017-02-13T04:16:12.910Z,58.44
2017-02-13T04:17:14.144Z,58.38
2017-02-13T04:18:12.581Z,58.08
2017-02-13T04:19:12.645Z,58.26
2017-02-13T04:20:12.688Z,58.23
2017-02-13T04:21:12.846Z,57.98
2017-02-13T04:22:13.107Z,58.43
2017-02-13T04:23:14.026Z,57.75
2017-02-13T04:24:12.885Z,57.30
2017-02-13T04:25:11.812Z,56.92
2017-02-13T04:26:10.889Z,57.27
2017-02-13T04:27:12.094Z,56.98
2017-02-13T04:28:12.836Z,57.66
2017-02-13T04:29:12.835Z,58.10
2017-02-13T04:30:10.239Z,58.56
2017-02-13T04:31:12.479Z,58.30
2017-02-13T04:32:13.170Z,58.33
2017-02-13T04:33:12.277Z,58.49
2017-02-13T04:34:12.872Z,58.42
2017-02-13T04:35:13.479Z,57.99
2017-02-13T04:36:12.950Z,58.31
2017-02-13T04:37:14.227Z,58.06
2017-02-13T04:38:12.410Z,57.82
2017-02-13T04:39:13.585Z,58.00
2017-02-13T04:40:13.356Z,57.90
2017-02-13T04:41:11.085Z,58.18
2017-02-13T04:42:14.176Z,58.33
2017-02-13T04:43:13.031Z,58.34
2017-02-13T04:44:12.643Z,58.21
2017-02-13T04:45:13.915Z,58.53
2017-02-13T04:46:13.783Z,58.38
2017-02-13T04:47:12.883Z,58.49
2017-02-13T04:48:13.835Z,58.19
2017-02-13T04:49:12.836Z,58.11
2017-02-13T04:50:12.773Z,58.12
2017-02-13T04:51:13.456Z,58.39
2017-02-13T04:52:13.071Z,58.39
2017-02-13T04:53:13.243Z,58.38
2017-02-13T04:54:11.675Z,58.51
2017-02-13T04:55:12.085Z,58.34
2017-02-13T04:56:12.865Z,58.33
2017-02-13T04:57:14.428Z,58.44
2017-02-13T04:58:13.163Z,58.52
2017-02-13T04:59:12.937Z,58.46
2017-02-13T05:00:12.513Z,58.78
2017-02-13T05:01:13.333Z,58.62
2017-02-13T05:02:12.434Z,58.68
2017-02-13T05:03:12.454Z,58.80
2017-02-13T05:04:13.715Z,58.67
2017-02-13T05:05:11.587Z,58.61
2017-02-13T05:06:13.614Z,57.60
2017-02-13T05:07:14.327Z,57.70
2017-02-13T05:08:13.063Z,57.44
2017-02-13T05:09:12.934Z,57.38
2017-02-13T05:10:12.808Z,58.24
2017-02-13T05:11:13.777Z,58.25
2017-02-13T05:12:12.837Z,58.61
2017-02-13T05:13:11.836Z,58.53
2017-02-13T05:14:12.656Z,58.93
2017-02-13T05:15:12.845Z,58.59
2017-02-13T05:16:12.977Z,58.66
2017-02-13T05:17:13.460Z,58.73
2017-02-13T05:18:14.356Z,57.67
2017-02-13T05:19:14.867Z,57.54
2017-02-13T05:20:12.824Z,57.43
2017-02-13T05:21:14.542Z,58.30
2017-02-13T05:22:13.115Z,58.42
2017-02-13T05:23:14.359Z,58.40
2017-02-13T05:24:13.008Z,58.69
2017-02-13T05:25:12.602Z,58.34
2017-02-13T05:26:13.596Z,59.06
2017-02-13T05:27:13.731Z,58.53
2017-02-13T05:28:13.822Z,58.59
2017-02-13T05:29:12.880Z,58.41
2017-02-13T05:30:13.903Z,58.57
2017-02-13T05:31:13.593Z,58.34
2017-02-13T05:32:12.663Z,57.45
2017-02-13T05:33:13.345Z,57.56
2017-02-13T05:34:12.460Z,58.38
2017-02-13T05:35:12.625Z,58.45
2017-02-13T05:36:13.424Z,59.63
2017-02-13T05:37:13.859Z,59.55
2017-02-13T05:38:13.634Z,59.31
2017-02-13T05:39:12.816Z,58.95
2017-02-13T05:40:13.969Z,58.86
2017-02-13T05:41:14.168Z,58.36
2017-02-13T05:42:12.564Z,57.94
2017-02-13T05:43:15.443Z,58.20
2017-02-13T05:44:11.621Z,57.94
2017-02-13T05:45:13.673Z,57.38
2017-02-13T05:46:13.434Z,57.06
2017-02-13T05:47:14.402Z,57.15
2017-02-13T05:48:12.469Z,57.80
2017-02-13T05:49:12.634Z,57.73
2017-02-13T05:50:12.826Z,57.88
2017-02-13T05:51:12.919Z,57.95
2017-02-13T05:52:11.832Z,57.90
2017-02-13T05:53:13.747Z,58.08
2017-02-13T05:54:13.533Z,57.99
2017-02-13T05:55:12.503Z,58.19
2017-02-13T05:56:12.706Z,57.98
2017-02-13T05:57:13.337Z,57.91
2017-02-13T05:58:13.965Z,58.11
2017-02-13T05:59:12.161Z,57.81
2017-02-13T06:00:13.334Z,57.72
2017-02-13T06:01:12.289Z,58.16
2017-02-13T06:02:13.121Z,58.26
2017-02-13T06:03:12.114Z,58.02
2017-02-13T06:04:12.149Z,57.98
2017-02-13T06:05:12.621Z,58.23
2017-02-13T06:06:12.662Z,58.48
2017-02-13T06:07:13.907Z,58.39
2017-02-13T06:08:13.897Z,58.31
2017-02-13T06:09:13.604Z,58.71
2017-02-13T06:10:12.707Z,58.91
2017-02-13T06:11:15.196Z,59.30
2017-02-13T06:12:11.311Z,58.84
2017-02-13T06:13:12.646Z,57.50
2017-02-13T06:14:11.525Z,58.26
2017-02-13T06:15:11.318Z,58.50
2017-02-13T06:16:14.182Z,57.37
2017-02-13T06:17:12.665Z,57.17
2017-02-13T06:18:13.503Z,57.53
2017-02-13T06:19:12.651Z,57.36
2017-02-13T06:20:13.656Z,58.23
2017-02-13T06:21:13.897Z,58.14
2017-02-13T06:22:13.082Z,58.40
2017-02-13T06:23:13.056Z,58.56
2017-02-13T06:24:12.901Z,58.76
2017-02-13T06:25:13.453Z,58.61
2017-02-13T06:26:12.484Z,58.73
2017-02-13T06:27:12.601Z,58.84
2017-02-13T06:28:13.658Z,58.73
2017-02-13T06:29:13.314Z,58.58
2017-02-13T06:30:13.104Z,58.60
2017-02-13T06:31:12.085Z,59.65
2017-02-13T06:32:12.326Z,60.01
2017-02-13T06:33:13.099Z,59.58
2017-02-13T06:34:13.085Z,59.10
2017-02-13T06:35:12.182Z,59.15
2017-02-13T06:36:12.856Z,58.76
2017-02-13T06:37:13.275Z,59.14
2017-02-13T06:38:12.354Z,58.93
2017-02-13T06:39:12.511Z,58.80
2017-02-13T06:40:13.434Z,58.85
2017-02-13T06:41:13.034Z,58.94
2017-02-13T06:42:12.813Z,58.77
2017-02-13T06:43:14.722Z,58.95
2017-02-13T06:44:13.269Z,59.23
2017-02-13T06:45:12.435Z,59.33
2017-02-13T06:46:12.536Z,59.41
2017-02-13T06:47:14.342Z,59.56
2017-02-13T06:48:13.486Z,59.68
2017-02-13T06:49:14.033Z,59.72
2017-02-13T06:50:12.251Z,59.44
2017-02-13T06:51:14.133Z,60.26
2017-02-13T06:52:13.454Z,60.23
2017-02-13T06:53:13.207Z,60.40
2017-02-13T06:54:12.299Z,60.29
2017-02-13T06:55:12.316Z,59.50
2017-02-13T06:56:13.046Z,59.17
2017-02-13T06:57:12.479Z,58.77
2017-02-13T06:58:13.181Z,58.80
2017-02-13T06:59:12.271Z,58.58
2017-02-13T07:00:11.577Z,58.54
2017-02-13T07:01:12.512Z,58.48
2017-02-13T07:02:13.051Z,58.23
2017-02-13T07:03:13.823Z,58.27
2017-02-13T07:04:11.948Z,58.18
2017-02-13T07:05:11.720Z,58.26
2017-02-13T07:06:13.406Z,57.60
2017-02-13T07:07:13.980Z,58.23
2017-02-13T07:08:10.966Z,58.20
2017-02-13T07:09:12.086Z,58.14
2017-02-13T07:10:12.651Z,58.16
2017-02-13T07:11:13.768Z,58.24
2017-02-13T07:12:13.602Z,58.53
2017-02-13T07:13:13.646Z,58.38
2017-02-13T07:14:11.834Z,58.36
2017-02-13T07:15:14.126Z,57.21
2017-02-13T07:16:12.646Z,57.39
2017-02-13T07:17:11.441Z,58.29
2017-02-13T07:18:12.873Z,58.14
2017-02-13T07:19:13.573Z,53.62
2017-02-13T07:20:12.643Z,40.01
2017-02-13T07:21:12.848Z,37.91
2017-02-13T07:22:12.938Z,46.09
2017-02-13T07:23:12.129Z,47.64
2017-02-13T07:24:12.177Z,46.71
2017-02-13T07:25:12.360Z,44.19
2017-02-13T07:26:13.076Z,46.09
2017-02-13T07:27:13.031Z,48.59
2017-02-13T07:28:13.694Z,49.80
2017-02-13T07:29:13.253Z,50.08
2017-02-13T07:30:12.698Z,52.07
2017-02-13T07:31:13.656Z,50.51
2017-02-13T07:32:13.432Z,50.67
2017-02-13T07:33:12.735Z,50.63
2017-02-13T07:34:13.753Z,50.68
2017-02-13T07:35:13.052Z,50.27
2017-02-13T07:36:12.205Z,50.99
2017-02-13T07:37:13.006Z,52.13
2017-02-13T07:38:12.476Z,51.81
2017-02-13T07:39:14.392Z,52.25
2017-02-13T07:40:12.393Z,52.36
2017-02-13T07:41:12.507Z,52.77
2017-02-13T07:42:12.644Z,53.31
2017-02-13T07:43:13.476Z,52.68
2017-02-13T07:44:12.461Z,52.60
2017-02-13T07:45:13.567Z,52.36
2017-02-13T07:46:15.214Z,52.14
2017-02-13T07:47:12.834Z,51.75
2017-02-13T07:48:13.596Z,52.27
2017-02-13T07:49:12.681Z,52.29
2017-02-13T07:50:13.394Z,52.26
2017-02-13T07:51:12.460Z,52.41
2017-02-13T07:52:12.646Z,52.55
2017-02-13T07:53:13.645Z,52.98
2017-02-13T07:54:12.787Z,53.24
2017-02-13T07:55:14.865Z,53.25
2017-02-13T07:56:12.383Z,53.08
2017-02-13T07:57:12.802Z,53.27
2017-02-13T07:58:14.762Z,53.84
2017-02-13T07:59:13.568Z,53.82
2017-02-13T08:00:12.817Z,55.36
2017-02-13T08:01:13.617Z,54.81
2017-02-13T08:02:12.635Z,55.23
2017-02-13T08:03:12.889Z,55.17
2017-02-13T08:04:13.645Z,54.71
2017-02-13T08:05:13.546Z,54.63
2017-02-13T08:06:14.133Z,54.77
2017-02-13T08:07:12.864Z,54.33
2017-02-13T08:08:12.895Z,54.58
2017-02-13T08:09:13.813Z,54.33
2017-02-13T08:10:13.756Z,54.48
2017-02-13T08:11:11.539Z,54.71
2017-02-13T08:12:12.561Z,54.78
2017-02-13T08:13:13.261Z,54.82
2017-02-13T08:14:13.142Z,54.89
2017-02-13T08:15:12.203Z,54.94
2017-02-13T08:16:11.237Z,55.03
2017-02-13T08:17:12.584Z,55.06
2017-02-13T08:18:12.616Z,55.09
2017-02-13T08:19:13.136Z,55.18
2017-02-13T08:20:13.707Z,55.32
2017-02-13T08:21:12.829Z,55.33
2017-02-13T08:22:14.411Z,55.35
2017-02-13T08:23:12.796Z,55.40
2017-02-13T08:24:12.866Z,55.43
2017-02-13T08:25:12.052Z,55.56
2017-02-13T08:26:12.637Z,54.65
2017-02-13T08:27:12.652Z,54.51
2017-02-13T08:28:12.886Z,54.38
2017-02-13T08:29:13.736Z,54.40
2017-02-13T08:30:12.844Z,54.45
2017-02-13T08:31:13.738Z,54.48
2017-02-13T08:32:11.395Z,54.49
2017-02-13T08:33:12.566Z,54.47
2017-02-13T08:34:13.263Z,54.51
2017-02-13T08:35:13.079Z,54.73
2017-02-13T08:36:13.585Z,55.40
2017-02-13T08:37:11.295Z,55.57
2017-02-13T08:38:12.787Z,55.70
2017-02-13T08:39:13.019Z,55.77
2017-02-13T08:40:13.004Z,55.82
2017-02-13T08:41:12.098Z,55.92
2017-02-13T08:42:11.976Z,55.90
2017-02-13T08:43:12.583Z,56.06
2017-02-13T08:44:12.873Z,56.00
2017-02-13T08:45:14.494Z,56.07
2017-02-13T08:46:12.587Z,56.07
2017-02-13T08:47:13.046Z,56.06
2017-02-13T08:48:12.501Z,56.10
2017-02-13T08:49:13.281Z,56.16
2017-02-13T08:50:12.125Z,56.18
2017-02-13T08:51:11.103Z,56.03
2017-02-13T08:52:12.120Z,55.63
2017-02-13T08:53:12.151Z,56.05
2017-02-13T08:54:10.183Z,56.10
2017-02-13T08:55:13.048Z,55.33
2017-02-13T08:56:12.655Z,55.18
2017-02-13T08:57:14.492Z,56.08
2017-02-13T08:58:16.103Z,56.21
2017-02-13T08:59:12.252Z,56.29
2017-02-13T09:00:12.943Z,56.30
2017-02-13T09:01:12.661Z,56.33
2017-02-13T09:02:12.708Z,56.37
2017-02-13T09:03:13.519Z,56.40
2017-02-13T09:04:12.483Z,56.36
2017-02-13T09:05:12.496Z,56.45
2017-02-13T09:06:13.391Z,56.46
2017-02-13T09:07:14.213Z,56.51
2017-02-13T09:08:15.094Z,56.50
2017-02-13T09:09:13.651Z,56.46
2017-02-13T09:10:13.820Z,56.45
2017-02-13T09:11:13.706Z,56.46
2017-02-13T09:12:12.838Z,56.50
2017-02-13T09:13:12.798Z,56.54
2017-02-13T09:14:13.184Z,56.53
2017-02-13T09:15:12.750Z,56.58
2017-02-13T09:16:11.632Z,56.58
2017-02-13T09:17:13.314Z,56.63
2017-02-13T09:18:13.139Z,56.61
2017-02-13T09:19:12.697Z,56.61
2017-02-13T09:20:12.847Z,56.63
2017-02-13T09:21:14.347Z,56.64
2017-02-13T09:22:13.067Z,56.70
2017-02-13T09:23:12.862Z,56.66
2017-02-13T09:24:12.915Z,56.64
2017-02-13T09:25:11.745Z,56.71
2017-02-13T09:26:11.552Z,56.70
2017-02-13T09:27:12.795Z,56.70
2017-02-13T09:28:14.590Z,56.69
2017-02-13T09:29:11.599Z,56.76
2017-02-13T09:30:13.153Z,55.83
2017-02-13T09:31:13.861Z,55.65
2017-02-13T09:32:14.716Z,55.54
2017-02-13T09:33:12.727Z,55.48
2017-02-13T09:34:14.314Z,55.46
2017-02-13T09:35:13.113Z,55.55
2017-02-13T09:36:12.854Z,55.79
2017-02-13T09:37:13.290Z,56.40
2017-02-13T09:38:12.315Z,56.52
2017-02-13T09:39:11.543Z,56.65
2017-02-13T09:40:11.118Z,56.68
2017-02-13T09:41:11.298Z,56.82
2017-02-13T09:42:12.509Z,56.77
2017-02-13T09:43:13.196Z,56.78
2017-02-13T09:44:12.448Z,56.79
2017-02-13T09:45:13.106Z,56.82
2017-02-13T09:46:11.941Z,56.83
2017-02-13T09:47:12.575Z,56.82
2017-02-13T09:48:13.417Z,56.82
2017-02-13T09:49:12.471Z,56.84
2017-02-13T09:50:12.731Z,56.85
2017-02-13T09:51:12.981Z,56.77
2017-02-13T09:52:14.958Z,56.18
2017-02-13T09:53:11.960Z,56.67
2017-02-13T09:54:14.677Z,56.80
2017-02-13T09:55:11.437Z,56.89
2017-02-13T09:56:12.805Z,56.88
2017-02-13T09:57:13.234Z,56.86
2017-02-13T09:58:12.472Z,56.87
2017-02-13T09:59:12.596Z,56.86
2017-02-13T10:00:13.574Z,56.88
2017-02-13T10:01:13.295Z,56.93
2017-02-13T10:02:13.091Z,56.92
2017-02-13T10:03:11.944Z,56.93
2017-02-13T10:04:12.091Z,56.99
2017-02-13T10:05:16.185Z,56.96
2017-02-13T10:06:12.082Z,56.98
2017-02-13T10:07:13.664Z,57.00
2017-02-13T10:08:12.656Z,56.95
2017-02-13T10:09:13.265Z,56.99
2017-02-13T10:10:12.970Z,56.95
2017-02-13T10:11:13.703Z,57.01
2017-02-13T10:12:13.584Z,57.03
2017-02-13T10:13:14.251Z,56.98
2017-02-13T10:14:12.884Z,57.04
2017-02-13T10:15:13.680Z,57.03
2017-02-13T10:16:14.624Z,57.01
2017-02-13T10:17:14.318Z,56.98
2017-02-13T10:18:12.657Z,57.01
2017-02-13T10:19:14.237Z,56.99
2017-02-13T10:20:12.954Z,57.00
2017-02-13T10:21:12.345Z,57.01
2017-02-13T10:22:12.572Z,57.07
2017-02-13T10:23:13.451Z,57.03
2017-02-13T10:24:13.345Z,57.03
2017-02-13T10:25:14.936Z,57.00
2017-02-13T10:26:12.556Z,57.00
2017-02-13T10:27:10.741Z,57.04
2017-02-13T10:28:13.077Z,57.06
2017-02-13T10:29:12.086Z,57.05
2017-02-13T10:30:12.752Z,57.02
2017-02-13T10:31:13.617Z,57.07
2017-02-13T10:32:13.283Z,57.04
2017-02-13T10:33:12.486Z,57.03
2017-02-13T10:34:09.840Z,57.04
2017-02-13T10:35:14.757Z,57.04
2017-02-13T10:36:12.883Z,57.06
2017-02-13T10:37:11.841Z,57.09
2017-02-13T10:38:13.001Z,56.16
2017-02-13T10:39:13.796Z,56.02
2017-02-13T10:40:12.860Z,56.78
2017-02-13T10:41:12.896Z,56.89
2017-02-13T10:42:18.787Z,56.99
2017-02-13T10:43:13.972Z,57.02
2017-02-13T10:44:11.908Z,57.05
2017-02-13T10:45:13.645Z,57.06
2017-02-13T10:46:14.345Z,57.05
2017-02-13T10:47:09.931Z,57.08
2017-02-13T10:48:13.125Z,57.06
2017-02-13T10:49:12.264Z,57.09
2017-02-13T10:50:13.017Z,57.06
2017-02-13T10:51:12.473Z,57.12
2017-02-13T10:52:12.516Z,57.07
2017-02-13T10:53:12.550Z,57.09
2017-02-13T10:54:13.439Z,57.10
2017-02-13T10:55:13.264Z,57.07
2017-02-13T10:56:12.825Z,57.09
2017-02-13T10:57:14.673Z,57.14
2017-02-13T10:58:12.827Z,57.12
2017-02-13T10:59:13.650Z,57.13
2017-02-13T11:00:11.631Z,57.13
2017-02-13T11:01:13.363Z,57.13
2017-02-13T11:02:12.826Z,57.13
2017-02-13T11:03:12.825Z,57.13
2017-02-13T11:04:12.836Z,57.12
2017-02-13T11:05:12.945Z,57.15
2017-02-13T11:06:11.862Z,57.18
2017-02-13T11:07:13.476Z,57.16
2017-02-13T11:08:14.082Z,57.03
2017-02-13T11:09:11.282Z,56.39
2017-02-13T11:10:12.610Z,56.97
2017-02-13T11:11:13.562Z,57.08
2017-02-13T11:12:12.636Z,57.10
2017-02-13T11:13:12.607Z,57.12
2017-02-13T11:14:12.925Z,57.01
2017-02-13T11:15:12.942Z,56.21
2017-02-13T11:16:12.507Z,56.26
2017-02-13T11:17:13.081Z,56.86
2017-02-13T11:18:12.504Z,56.99
2017-02-13T11:19:13.076Z,57.06
2017-02-13T11:20:13.412Z,57.07
2017-02-13T11:21:13.370Z,57.08
2017-02-13T11:22:13.877Z,57.09
2017-02-13T11:23:12.828Z,57.12
2017-02-13T11:24:12.827Z,57.19
2017-02-13T11:25:13.056Z,57.15
2017-02-13T11:26:12.879Z,57.12
2017-02-13T11:27:13.073Z,57.15
2017-02-13T11:28:13.147Z,57.14
2017-02-13T11:29:12.430Z,57.18
2017-02-13T11:30:14.050Z,57.22
2017-02-13T11:31:12.086Z,57.20
2017-02-13T11:32:12.138Z,57.18
2017-02-13T11:33:12.189Z,57.20
2017-02-13T11:34:12.769Z,57.18
2017-02-13T11:35:13.484Z,57.20
2017-02-13T11:36:13.221Z,57.19
2017-02-13T11:37:12.900Z,57.18
2017-02-13T11:38:14.541Z,57.20
2017-02-13T11:39:13.090Z,57.22
2017-02-13T11:40:15.259Z,57.24
2017-02-13T11:41:13.355Z,57.20
2017-02-13T11:42:12.564Z,57.22
2017-02-13T11:43:12.640Z,57.20
2017-02-13T11:44:12.812Z,57.20
2017-02-13T11:45:11.580Z,57.32
2017-02-13T11:46:13.096Z,57.25
2017-02-13T11:47:13.034Z,57.20
2017-02-13T11:48:13.019Z,57.20
2017-02-13T11:49:12.086Z,57.21
2017-02-13T11:50:11.194Z,57.04
2017-02-13T11:51:13.054Z,56.26
2017-02-13T11:52:12.323Z,56.07
2017-02-13T11:53:12.495Z,56.27
2017-02-13T11:54:14.327Z,56.88
2017-02-13T11:55:12.272Z,57.02
2017-02-13T11:56:13.183Z,57.13
2017-02-13T11:57:12.684Z,57.14
2017-02-13T11:58:11.913Z,57.07
2017-02-13T11:59:12.901Z,56.29
2017-02-13T12:00:13.521Z,56.10
2017-02-13T12:01:12.632Z,56.03
2017-02-13T12:02:14.353Z,55.98
2017-02-13T12:03:13.408Z,55.92
2017-02-13T12:04:10.584Z,55.92
2017-02-13T12:05:13.814Z,55.89
2017-02-13T12:06:12.926Z,55.90
2017-02-13T12:07:13.724Z,55.89
2017-02-13T12:08:13.547Z,56.13
2017-02-13T12:09:15.173Z,56.83
2017-02-13T12:10:12.337Z,57.01
2017-02-13T12:11:11.346Z,57.08
2017-02-13T12:12:14.157Z,57.14
2017-02-13T12:13:12.817Z,57.14
2017-02-13T12:14:12.892Z,57.17
2017-02-13T12:15:12.927Z,57.19
2017-02-13T12:16:12.840Z,57.18
2017-02-13T12:17:12.956Z,57.17
2017-02-13T12:18:12.648Z,57.19
2017-02-13T12:19:10.581Z,57.25
2017-02-13T12:20:13.623Z,57.27
2017-02-13T12:21:14.506Z,57.23
2017-02-13T12:22:11.769Z,57.20
2017-02-13T12:23:10.816Z,57.21
2017-02-13T12:24:13.038Z,56.29
2017-02-13T12:25:12.079Z,56.99
2017-02-13T12:26:13.185Z,57.09
2017-02-13T12:27:12.771Z,57.19
2017-02-13T12:28:12.901Z,57.20
2017-02-13T12:29:13.792Z,57.19
2017-02-13T12:30:14.606Z,57.21
2017-02-13T12:31:13.037Z,57.21
2017-02-13T12:32:13.070Z,57.21
2017-02-13T12:33:13.321Z,57.21
2017-02-13T12:34:13.163Z,57.25
2017-02-13T12:35:13.710Z,57.26
2017-02-13T12:36:12.935Z,57.22
2017-02-13T12:37:11.984Z,57.22
2017-02-13T12:38:11.969Z,57.22
2017-02-13T12:39:12.074Z,57.22
2017-02-13T12:40:12.305Z,57.24
2017-02-13T12:41:14.035Z,57.25
2017-02-13T12:42:13.673Z,57.23
2017-02-13T12:43:12.160Z,57.30
2017-02-13T12:45:33.068Z,56.13
2017-02-13T12:45:33.492Z,56.36
2017-02-13T12:46:12.765Z,56.06
2017-02-13T12:47:13.587Z,56.02
2017-02-13T12:48:12.614Z,56.84
2017-02-13T12:49:13.051Z,57.02
2017-02-13T12:50:12.095Z,57.12
2017-02-13T12:51:12.282Z,57.18
2017-02-13T12:52:12.842Z,57.19